Time;durP1;ratioP1;P1;durP2;ratioP2;P2;SDS_P1;SDS_P2;PMS_P1;PMS_P2;Temp;Humidity;BMP_temperature;BMP_pressure;BME280_temperature;BME280_humidity;BME280_pressure;Samples;Min_cycle;Max_cycle;Signal;HPM_P1;HPM_P2
2022/05/14 00:01:09;;;;;;;;;;;;;;;;;;4965286;28;26093;-68
2022/05/14 00:03:38;;;;;;;;;;;;;;;;;;4968865;28;26073;-69
2022/05/14 00:06:05;;;;;;;;;;;;;;;;;;4971951;28;25059;-69
2022/05/14 00:08:32;;;;;;;;;;;8.20;99.90;;;;;;4969329;28;28100;-69
2022/05/14 00:13:45;;;;;;;;;;;8.10;99.90;;;;;;4965992;28;27113;-69
2022/05/14 00:16:12;;;;;;;;;;;8.00;99.90;;;;;;4971248;28;27190;-68
2022/05/14 00:18:39;;;;;;;;;;;8.00;99.90;;;;;;4965119;28;25065;-68
2022/05/14 00:21:05;;;;;;;;;;;7.90;99.90;;;;;;4971282;28;25077;-68
2022/05/14 00:23:32;;;;;;;;;;;7.90;99.90;;;;;;4969591;28;28111;-70
2022/05/14 00:25:58;;;;;;;;;;;7.90;99.90;;;;;;4973510;28;27121;-70
2022/05/14 00:28:25;;;;;;;;;;;7.90;99.90;;;;;;4975163;28;29111;-68
2022/05/14 00:30:52;;;;;;;;;;;7.90;99.90;;;;;;4972526;28;25114;-69
2022/05/14 00:33:19;;;;;;;;;;;8.10;99.90;;;;;;4968195;28;29084;-70
2022/05/14 00:35:45;;;;;;;;;;;8.10;99.90;;;;;;4966602;28;28121;-68
2022/05/14 00:38:13;;;;;;;;;;;8.20;99.90;;;;;;4959460;28;28160;-68
2022/05/14 00:40:48;;;;;;;;;;;8.20;99.90;;;;;;4963767;28;28144;-68
2022/05/14 00:43:15;;;;;;;;;;;8.20;99.90;;;;;;4970468;28;26130;-68
2022/05/14 00:45:51;;;;;;;;;;;8.30;99.90;;;;;;4963621;28;27064;-68
2022/05/14 00:48:20;;;;;;;;;;;8.30;99.90;;;;;;4968171;28;27082;-68
2022/05/14 00:50:57;;;;;;;;;;;8.30;99.90;;;;;;4972740;28;26086;-69
2022/05/14 00:53:31;;;;;;;;;;;8.30;99.90;;;;;;4958523;28;29160;-69
2022/05/14 00:56:02;;;;;;;;;;;8.20;99.90;;;;;;4969793;28;29213;-70
2022/05/14 00:58:32;;;;;;;;;;;8.00;99.90;;;;;;4960727;28;25068;-69
2022/05/14 01:00:59;;;;;;;;;;;7.90;99.90;;;;;;4971727;28;27113;-68
2022/05/14 01:03:26;;;;;;;;;;;7.60;99.90;;;;;;4967622;28;27026;-68
2022/05/14 01:05:53;;;;;;;;;;;7.40;99.90;;;;;;4964189;28;26099;-68
2022/05/14 01:08:20;;;;;;;;;;;7.30;99.90;;;;;;4973663;28;27058;-69
2022/05/14 01:10:47;;;;;;;;;;;7.40;99.90;;;;;;4971476;28;25165;-68
2022/05/14 01:13:14;;;;;;;;;;;7.40;99.90;;;;;;4967184;28;26125;-68
2022/05/14 01:15:40;;;;;;;;;;;7.30;99.90;;;;;;4968296;28;28189;-69
2022/05/14 01:18:07;;;;;;;;;;;7.30;99.90;;;;;;4981802;28;25159;-69
2022/05/14 01:20:42;;;;;;;;;;;7.40;99.90;;;;;;4963784;28;29183;-69
2022/05/14 01:23:09;;;;;;;;;;;7.40;99.90;;;;;;4958676;28;29147;-68
2022/05/14 01:28:28;;;;;;;;;;;7.40;99.90;;;;;;4960954;28;27185;-69
2022/05/14 01:30:59;;;;;;;;;;;7.20;99.90;;;;;;4964849;28;27078;-69
2022/05/14 01:33:27;;;;;;;;;;;7.10;99.90;;;;;;4964953;28;28154;-69
2022/05/14 01:35:54;;;;;;;;;;;7.00;99.90;;;;;;4966155;28;28141;-68
2022/05/14 01:38:22;;;;;;;;;;;7.00;99.90;;;;;;4960997;28;28135;-69
2022/05/14 01:40:49;;;;;;;;;;;7.00;99.90;;;;;;4969445;28;26073;-70
2022/05/14 01:43:15;;;;;;;;;;;7.10;99.90;;;;;;4963176;28;25148;-68
2022/05/14 01:45:42;;;;;;;;;;;7.10;99.90;;;;;;4968328;28;25116;-69
2022/05/14 01:48:12;;;;;;;;;;;7.00;99.90;;;;;;4964711;28;25791;-69
2022/05/14 01:50:42;;;;;;;;;;;7.00;99.90;;;;;;4968666;28;27121;-68
2022/05/14 01:53:09;;;;;;;;;;;7.00;99.90;;;;;;4968071;28;27124;-68
2022/05/14 01:55:36;;;;;;;;;;;6.90;99.90;;;;;;4971418;28;26067;-69
2022/05/14 01:58:36;;;;;;;;;;;6.90;99.90;;;;;;4960243;28;27081;-69
2022/05/14 02:00:50;;;;;;;;;;;6.80;99.90;;;;;;4962990;28;28125;-68
2022/05/14 02:03:17;;;;;;;;;;;6.80;99.90;;;;;;4967386;28;27081;-68
2022/05/14 02:05:44;;;;;;;;;;;6.80;99.90;;;;;;4966846;28;25157;-70
2022/05/14 02:08:11;;;;;;;;;;;6.90;99.90;;;;;;4956483;28;27105;-69
2022/05/14 02:10:38;;;;;;;;;;;6.80;99.90;;;;;;4967752;28;25115;-69
2022/05/14 02:13:04;;;;;;;;;;;6.80;99.90;;;;;;4965684;28;28070;-69
2022/05/14 02:15:34;;;;;;;;;;;6.80;99.90;;;;;;4959245;28;26118;-69
2022/05/14 02:18:06;;;;;;;;;;;6.90;99.90;;;;;;4962635;28;25087;-69
2022/05/14 02:20:32;;;;;;;;;;;6.80;99.90;;;;;;4971367;28;28158;-69
2022/05/14 02:22:59;;;;;;;;;;;6.70;99.90;;;;;;4957574;28;25100;-70
2022/05/14 02:25:26;;;;;;;;;;;6.70;99.90;;;;;;4982256;28;25100;-72
2022/05/14 02:27:55;;;;;;;;;;;6.70;99.90;;;;;;4966514;28;26141;-70
2022/05/14 02:30:22;;;;;;;;;;;6.70;99.90;;;;;;4960337;28;27121;-69
2022/05/14 02:32:48;;;;;;;;;;;6.70;99.90;;;;;;4967344;28;28113;-68
2022/05/14 02:35:17;;;;;;;;;;;6.70;99.90;;;;;;4964758;28;29081;-68
2022/05/14 02:37:44;;;;;;;;;;;6.70;99.90;;;;;;4958441;28;29058;-69
2022/05/14 02:40:13;;;;;;;;;;;6.60;99.90;;;;;;4959687;28;25155;-69
2022/05/14 02:42:40;;;;;;;;;;;6.60;99.90;;;;;;4966279;28;27054;-69
2022/05/14 02:45:07;;;;;;;;;;;6.50;99.90;;;;;;4953863;28;26108;-68
2022/05/14 02:47:34;;;;;;;;;;;6.40;99.90;;;;;;4961366;28;29166;-69
2022/05/14 02:50:01;;;;;;;;;;;6.30;99.90;;;;;;4960768;28;27135;-68
2022/05/14 02:52:27;;;;;;;;;;;6.30;99.90;;;;;;4965731;28;25240;-68
2022/05/14 02:54:54;;;;;;;;;;;6.30;99.90;;;;;;4971135;28;28112;-67
2022/05/14 02:57:21;;;;;;;;;;;6.30;99.90;;;;;;4970161;28;27107;-69
2022/05/14 02:59:47;;;;;;;;;;;6.40;99.90;;;;;;4960635;28;26183;-67
2022/05/14 03:02:17;;;;;;;;;;;6.40;99.90;;;;;;4965469;28;28093;-68
2022/05/14 03:04:44;;;;;;;;;;;6.50;99.90;;;;;;4961884;28;25061;-68
2022/05/14 03:07:11;;;;;;;;;;;6.60;99.90;;;;;;4963741;28;25054;-68
2022/05/14 03:09:39;;;;;;;;;;;6.60;99.90;;;;;;4965008;28;25207;-68
2022/05/14 03:12:09;;;;;;;;;;;6.60;99.90;;;;;;4961797;28;27090;-68
2022/05/14 03:14:36;;;;;;;;;;;6.60;99.90;;;;;;4965663;28;29222;-69
2022/05/14 03:17:03;;;;;;;;;;;6.70;99.90;;;;;;4980680;28;25136;-67
2022/05/14 03:19:29;;;;;;;;;;;6.70;99.90;;;;;;4960819;28;27085;-67
2022/05/14 03:21:56;;;;;;;;;;;6.70;99.90;;;;;;4964257;28;28148;-67
2022/05/14 03:24:23;;;;;;;;;;;6.60;99.90;;;;;;4972616;28;25178;-67
2022/05/14 03:26:50;;;;;;;;;;;6.50;99.90;;;;;;4982045;28;25203;-68
2022/05/14 03:29:18;;;;;;;;;;;6.50;99.90;;;;;;4977977;28;29076;-68
2022/05/14 03:31:45;;;;;;;;;;;6.40;99.90;;;;;;4976504;28;27148;-67
2022/05/14 03:34:14;;;;;;;;;;;6.30;99.90;;;;;;4964250;28;28083;-68
2022/05/14 03:36:41;;;;;;;;;;;6.20;99.90;;;;;;4977292;28;26078;-67
2022/05/14 03:39:09;;;;;;;;;;;6.30;99.90;;;;;;4960711;28;27183;-67
2022/05/14 03:41:39;;;;;;;;;;;6.30;99.90;;;;;;4965798;28;29093;-68
2022/05/14 03:44:05;;;;;;;;;;;6.30;99.90;;;;;;4956249;28;28079;-67
2022/05/14 03:46:34;;;;;;;;;;;6.20;99.90;;;;;;4961068;28;28171;-67
2022/05/14 03:49:01;;;;;;;;;;;6.20;99.90;;;;;;4960326;28;27121;-67
2022/05/14 03:51:29;;;;;;;;;;;6.30;99.90;;;;;;4957861;28;25215;-67
2022/05/14 03:53:59;;;;;;;;;;;6.30;99.90;;;;;;4956378;28;25224;-67
2022/05/14 03:56:26;;;;;;;;;;;6.30;99.90;;;;;;4954259;28;25069;-67
2022/05/14 03:58:55;;;;;;;;;;;6.40;99.90;;;;;;4964767;28;29152;-68
2022/05/14 04:01:22;;;;;;;;;;;6.40;99.90;;;;;;4967155;28;25138;-68
2022/05/14 04:03:49;;;;;;;;;;;6.40;99.90;;;;;;4959361;28;25120;-69
2022/05/14 04:06:16;;;;;;;;;;;6.40;99.90;;;;;;4954396;28;25195;-69
2022/05/14 04:08:43;;;;;;;;;;;6.40;99.90;;;;;;4959982;28;25061;-68
2022/05/14 04:11:10;;;;;;;;;;;6.40;99.90;;;;;;4963150;28;29109;-68
2022/05/14 04:13:37;;;;;;;;;;;6.40;99.90;;;;;;4948704;28;25277;-68
2022/05/14 04:16:04;;;;;;;;;;;6.40;99.90;;;;;;4955214;28;26104;-68
2022/05/14 04:18:31;;;;;;;;;;;6.40;99.90;;;;;;4958927;28;29135;-68
2022/05/14 04:20:58;;;;;;;;;;;6.40;99.90;;;;;;4972069;28;25112;-68
2022/05/14 04:23:28;;;;;;;;;;;6.40;99.90;;;;;;4967205;28;25132;-68
2022/05/14 04:25:55;;;;;;;;;;;6.50;99.90;;;;;;4962520;28;28109;-68
2022/05/14 04:28:22;;;;;;;;;;;6.60;99.90;;;;;;4962853;28;28155;-69
2022/05/14 04:30:49;;;;;;;;;;;6.70;99.90;;;;;;4958738;28;25097;-68
2022/05/14 04:33:17;;;;;;;;;;;6.90;99.90;;;;;;4959263;28;28069;-68
2022/05/14 04:35:44;;;;;;;;;;;7.00;99.90;;;;;;4962803;28;29090;-67
2022/05/14 04:38:13;;;;;;;;;;;7.50;99.90;;;;;;4967326;28;25106;-68
2022/05/14 04:40:40;;;;;;;;;;;8.60;99.90;;;;;;4969164;28;25064;-68
2022/05/14 04:43:08;;;;;;;;;;;9.90;99.90;;;;;;4970877;28;27131;-68
2022/05/14 04:45:35;;;;;;;;;;;11.10;99.90;;;;;;5011558;28;29057;-68
2022/05/14 04:48:02;;;;;;;;;;;12.10;99.90;;;;;;5036241;28;25070;-68
2022/05/14 04:50:28;;;;;;;;;;;12.90;99.90;;;;;;5040641;28;25056;-68
2022/05/14 04:52:55;;;;;;;;;;;13.70;99.90;;;;;;5093179;28;19931;-68
2022/05/14 04:55:22;;;;;;;;;;;14.40;99.90;;;;;;5069607;28;25181;-68
2022/05/14 04:57:49;;;;;;;;;;;15.10;99.90;;;;;;5064227;28;20631;-68
2022/05/14 05:00:16;;;;;;;;;;;15.90;99.90;;;;;;5050093;28;19925;-68
2022/05/14 05:05:30;;;;;;;;;;;17.10;99.90;;;;;;5057003;28;20342;-68
2022/05/14 05:07:59;;;;;;;;;;;17.90;99.90;;;;;;5059818;28;20032;-67
2022/05/14 05:10:26;;;;;;;;;;;18.50;99.90;;;;;;4979323;28;64150;-68
2022/05/14 05:12:53;;;;;;;;;;;18.70;99.90;;;;;;5065815;28;25067;-67
2022/05/14 05:15:20;;;;;;;;;;;19.10;99.90;;;;;;5085329;28;19931;-68
2022/05/14 05:17:46;;;;;;;;;;;19.80;99.90;;;;;;5049277;28;19931;-67
2022/05/14 05:20:16;;;;;;;;;;;20.30;99.90;;;;;;5060760;28;19928;-68
2022/05/14 05:22:48;;;;;;;;;;;20.60;99.90;;;;;;5055821;28;21555;-66
2022/05/14 05:25:15;;;;;;;;;;;20.60;99.90;;;;;;5068675;28;19932;-68
2022/05/14 05:27:43;;;;;;;;;;;20.90;99.90;;;;;;5065724;28;20375;-68
2022/05/14 05:30:10;;;;;;;;;;;21.30;99.90;;;;;;5054500;28;19933;-67
2022/05/14 05:32:39;;;;;;;;;;;21.90;99.90;;;;;;5075397;28;19992;-68
2022/05/14 05:35:06;;;;;;;;;;;22.50;99.90;;;;;;5063867;28;19931;-67
2022/05/14 05:37:32;;;;;;;;;;;22.90;99.90;;;;;;5067349;28;19928;-67
2022/05/14 05:39:59;;;;;;;;;;;23.10;99.90;;;;;;5056408;28;19929;-67
2022/05/14 05:42:25;;;;;;;;;;;23.20;99.90;;;;;;5062653;28;19924;-67
2022/05/14 05:44:52;;;;;;;;;;;23.40;99.90;;;;;;5065249;28;19936;-67
2022/05/14 05:47:19;;;;;;;;;;;23.60;99.90;;;;;;5063001;28;20428;-68
2022/05/14 05:49:46;;;;;;;;;;;23.60;99.90;;;;;;5065949;28;19928;-69
2022/05/14 05:52:15;;;;;;;;;;;23.70;99.90;;;;;;5060408;28;20351;-67
2022/05/14 05:57:27;;;;;;;;;;;;;;;;;;5066663;28;20405;-68
2022/05/14 05:59:54;;;;;;;;;;;24.60;99.90;;;;;;5055382;28;19964;-68
2022/05/14 06:02:21;;;;;;;;;;;24.90;99.90;;;;;;5068617;28;20367;-67
2022/05/14 06:04:48;;;;;;;;;;;25.40;99.90;;;;;;5068423;28;19960;-67
2022/05/14 06:07:15;;;;;;;;;;;25.80;99.90;;;;;;5065331;28;20043;-67
2022/05/14 06:09:42;;;;;;;;;;;25.90;99.90;;;;;;5063949;28;19924;-67
2022/05/14 06:12:09;;;;;;;;;;;26.20;99.90;;;;;;5068706;28;20059;-67
2022/05/14 06:14:36;;;;;;;;;;;26.30;99.90;;;;;;5069552;28;20438;-67
2022/05/14 06:17:03;;;;;;;;;;;26.60;99.90;;;;;;5065883;28;20409;-66
2022/05/14 06:19:29;;;;;;;;;;;26.80;99.90;;;;;;5067734;28;19924;-66
2022/05/14 06:21:56;;;;;;;;;;;26.80;99.90;;;;;;5062108;28;20067;-67
2022/05/14 06:24:25;;;;;;;;;;;26.60;99.90;;;;;;5065841;28;20394;-67
2022/05/14 06:26:52;;;;;;;;;;;26.70;99.90;;;;;;5069393;28;19932;-67
2022/05/14 06:29:19;;;;;;;;;;;26.90;99.90;;;;;;5066231;28;20269;-68
2022/05/14 06:31:45;;;;;;;;;;;27.10;99.90;;;;;;5088831;28;19925;-67
2022/05/14 06:34:15;;;;;;;;;;;27.30;99.90;;;;;;5070512;28;19935;-68
2022/05/14 06:36:44;;;;;;;;;;;27.20;99.90;;;;;;5065106;28;19955;-66
2022/05/14 06:39:11;;;;;;;;;;;25.50;99.90;;;;;;5062915;28;19939;-66
2022/05/14 06:41:38;;;;;;;;;;;25.30;99.90;;;;;;5071842;28;19934;-67
2022/05/14 06:44:05;;;;;;;;;;;25.60;99.90;;;;;;5082639;28;19928;-67
2022/05/14 06:46:32;;;;;;;;;;;26.10;99.90;;;;;;5065352;28;19935;-67
2022/05/14 06:48:58;;;;;;;;;;;26.50;99.90;;;;;;5088340;28;19925;-68
2022/05/14 06:51:27;;;;;;;;;;;26.70;99.90;;;;;;5070846;28;19935;-68
2022/05/14 06:53:57;;;;;;;;;;;27.00;99.90;;;;;;5075912;28;19932;-67
2022/05/14 06:56:26;;;;;;;;;;;27.10;99.90;;;;;;5066533;28;19947;-68
2022/05/14 06:58:53;;;;;;;;;;;27.30;99.90;;;;;;5066754;28;20544;-69
2022/05/14 07:01:20;;;;;;;;;;;27.10;99.90;;;;;;5071020;28;19924;-70
2022/05/14 07:06:38;;;;;;;;;;;27.80;99.90;;;;;;5074574;28;19951;-67
2022/05/14 07:09:06;;;;;;;;;;;27.50;99.90;;;;;;5075388;28;19928;-67
2022/05/14 07:11:34;;;;;;;;;;;27.60;99.90;;;;;;5064453;28;19952;-68
2022/05/14 07:14:02;;;;;;;;;;;27.90;99.90;;;;;;5070144;28;20534;-68
2022/05/14 07:16:28;;;;;;;;;;;28.20;99.90;;;;;;5080950;28;19925;-68
2022/05/14 07:18:55;;;;;;;;;;;28.00;99.90;;;;;;5066070;28;19935;-67
2022/05/14 07:21:28;;;;;;;;;;;27.70;99.70;;;;;;5058237;28;19925;-67
2022/05/14 07:23:55;;;;;;;;;;;27.90;99.90;;;;;;5066051;28;19932;-66
2022/05/14 07:26:21;;;;;;;;;;;28.00;98.70;;;;;;5069856;28;19924;-67
2022/05/14 07:28:48;;;;;;;;;;;27.40;99.90;;;;;;5058798;28;19925;-67
2022/05/14 07:31:15;;;;;;;;;;;27.60;99.60;;;;;;5067960;28;19935;-67
2022/05/14 07:33:42;;;;;;;;;;;27.50;98.90;;;;;;5078093;28;19925;-67
2022/05/14 07:36:14;;;;;;;;;;;27.10;98.60;;;;;;5068048;28;19933;-67
2022/05/14 07:38:41;;;;;;;;;;;26.50;99.00;;;;;;5072749;28;19939;-66
2022/05/14 07:41:07;;;;;;;;;;;26.30;99.80;;;;;;5063023;28;20473;-65
2022/05/14 07:43:37;;;;;;;;;;;26.20;99.40;;;;;;5068060;28;19998;-66
2022/05/14 07:46:07;;;;;;;;;;;25.80;98.90;;;;;;5062577;28;20019;-66
2022/05/14 07:48:36;;;;;;;;;;;25.80;99.50;;;;;;5061811;28;20553;-67
2022/05/14 07:51:03;;;;;;;;;;;26.00;99.80;;;;;;5072114;28;19970;-66
2022/05/14 07:53:31;;;;;;;;;;;26.30;98.90;;;;;;5072566;28;19939;-67
2022/05/14 07:55:58;;;;;;;;;;;26.10;99.10;;;;;;5064058;28;20492;-68
2022/05/14 07:58:25;;;;;;;;;;;26.20;99.80;;;;;;5069450;28;19928;-67
2022/05/14 08:00:52;;;;;;;;;;;26.80;99.00;;;;;;5070447;28;19933;-66
2022/05/14 08:03:22;;;;;;;;;;;27.20;99.00;;;;;;5072023;28;19939;-68
2022/05/14 08:05:49;;;;;;;;;;;27.10;98.40;;;;;;5075111;28;19923;-68
2022/05/14 08:08:18;;;;;;;;;;;27.00;99.00;;;;;;5055420;28;19982;-66
2022/05/14 08:10:45;;;;;;;;;;;27.30;99.00;;;;;;5062307;28;19929;-68
2022/05/14 08:13:16;;;;;;;;;;;27.30;98.10;;;;;;5067280;28;19928;-67
2022/05/14 08:15:44;;;;;;;;;;;27.40;98.50;;;;;;5067317;28;19925;-67
2022/05/14 12:06:27;;;;;;;;;;;;;;;;;;5061222;28;22307;-59
2022/05/14 12:08:55;;;;;;;;;;;;;;;;;;5065250;28;20489;-59
2022/05/14 12:11:25;;;;;;;;;;;;;;;;;;5073359;28;19924;-59
2022/05/14 12:13:52;;;;;;;;;;;;;;;;;;5059114;28;19924;-59
2022/05/14 12:16:19;;;;;;;;;;;;;;;;;;5063291;28;20308;-59
2022/05/14 12:18:48;;;;;;;;;;;;;;;;;;5067221;28;19925;-60
2022/05/14 12:21:16;;;;;;;;;;;;;;;;;;5057142;28;20275;-60
2022/05/14 12:23:43;;;;;;;;;;;;;;;;;;5059532;28;19931;-61
2022/05/14 12:26:10;;;;;;;;;;;;;;;;;;5053221;28;19925;-61
2022/05/14 12:28:37;;;;;;;;;;;;;;;;;;5063850;28;19925;-58
2022/05/14 12:33:50;;;;;;;;;;;;;;;;;;5058077;28;19932;-59
2022/05/14 12:36:18;;;;;;;;;;;;;;;;;;5093884;27;20280;-60
2022/05/14 12:38:45;;;;;;;;;;;;;;;;;;5057634;28;20023;-61
2022/05/14 12:41:12;;;;;;;;;;;;;;;;;;5055778;28;19928;-61
2022/05/14 12:43:40;;;;;;;;;;;;;;;;;;5055442;28;20015;-59
2022/05/14 12:46:07;;;;;;;;;;;;;;;;;;5053787;28;19947;-60
2022/05/14 12:48:34;;;;;;;;;;;;;;;;;;5067306;28;19925;-59
2022/05/14 12:51:01;;;;;;;;;;;;;;;;;;5077190;28;19925;-59
2022/05/14 12:53:28;;;;;;;;;;;;;;;;;;5060073;28;19928;-60
2022/05/14 12:55:58;;;;;;;;;;;;;;;;;;5061609;28;19933;-60
2022/05/14 12:58:25;;;;;;;;;;;;;;;;;;5061457;28;19925;-60
2022/05/14 13:00:52;;;;;;;;;;;;;;;;;;5067488;28;19934;-60
2022/05/14 13:03:19;;;;;;;;;;;;;;;;;;5060153;28;19936;-60
2022/05/14 13:05:47;;;;;;;;;;;;;;;;;;5060637;28;19935;-60
2022/05/14 13:08:14;;;;;;;;;;;;;;;;;;5066872;28;20028;-60
2022/05/14 13:10:41;;;;;;;;;;;;;;;;;;5063239;28;19929;-59
2022/05/14 13:13:08;;;;;;;;;;;;;;;;;;5066063;28;19929;-59
2022/05/14 13:15:36;;;;;;;;;;;;;;;;;;5062856;28;19932;-60
2022/05/14 13:18:03;;;;;;;;;;;;;;;;;;5066790;28;19925;-59
2022/05/14 13:20:33;;;;;;;;;;;;;;;;;;5058462;28;19932;-60
2022/05/14 13:23:00;;;;;;;;;;;;;;;;;;5066459;28;19935;-60
2022/05/14 13:25:27;;;;;;;;;;;;;;;;;;5069795;28;19936;-59
2022/05/14 13:27:54;;;;;;;;;;;;;;;;;;5061554;28;20394;-60
2022/05/14 13:30:21;;;;;;;;;;;;;;;;;;5086378;28;19924;-59
2022/05/14 13:32:48;;;;;;;;;;;;;;;;;;5097743;27;19931;-59
2022/05/14 13:38:07;;;;;;;;;;;;;;;;;;5058310;28;19924;-59
2022/05/14 13:40:34;;;;;;;;;;;;;;;;;;5060615;28;19924;-59
2022/05/14 13:43:01;;;;;;;;;;;;;;;;;;5062349;28;20397;-60
2022/05/14 13:45:28;;;;;;;;;;;;;;;;;;5063501;28;20272;-60
2022/05/14 13:47:55;;;;;;;;;;;;;;;;;;5060940;28;19939;-60
2022/05/14 13:50:23;;;;;;;;;;;;;;;;;;5055840;28;19925;-60
2022/05/14 13:52:50;;;;;;;;;;;;;;;;;;5053436;28;21633;-58
2022/05/14 13:55:17;;;;;;;;;;;;;;;;;;5053036;28;19932;-59
2022/05/14 13:57:44;;;;;;;;;;;;;;;;;;5053400;28;19928;-59
2022/05/14 14:00:11;;;;;;;;;;;;;;;;;;5043812;28;20314;-60
2022/05/14 14:02:39;;;;;;;;;;;;;;;;;;5054481;28;19928;-59
2022/05/14 14:05:08;;;;;;;;;;;;;;;;;;5052668;28;20437;-60
2022/05/14 14:07:35;;;;;;;;;;;;;;;;;;5060265;28;19924;-59
2022/05/14 14:10:02;;;;;;;;;;;;;;;;;;5055194;28;19924;-60
2022/05/14 14:12:32;;;;;;;;;;;;;;;;;;5055810;28;20023;-60
2022/05/14 14:15:02;;;;;;;;;;;;;;;;;;5058526;28;19930;-59
2022/05/14 14:17:29;;;;;;;;;;;;;;;;;;5058415;28;19924;-59
2022/05/14 14:19:57;;;;;;;;;;;;;;;;;;5051651;28;20583;-59
2022/05/14 14:22:24;;;;;;;;;;;;;;;;;;5053824;28;20429;-61
2022/05/14 14:24:53;;;;;;;;;;;;;;;;;;5072774;28;19933;-60
2022/05/14 14:27:20;;;;;;;;;;;;;;;;;;5052260;28;20435;-60
2022/05/14 14:29:47;;;;;;;;;;;;;;;;;;5050819;28;19933;-60
2022/05/14 14:32:17;;;;;;;;;;;;;;;;;;5051185;28;19931;-61
2022/05/14 14:34:44;;;;;;;;;;;;;;;;;;5053396;28;19928;-59
2022/05/14 14:37:11;;;;;;;;;;;;;;;;;;5050783;28;19936;-60
2022/05/14 14:39:38;;;;;;;;;;;;;;;;;;5050974;28;20280;-60
2022/05/14 14:42:05;;;;;;;;;;;;;;;;;;5063759;28;19931;-60
2022/05/14 14:44:35;;;;;;;;;;;;;;;;;;5058123;28;19925;-61
2022/05/14 14:47:03;;;;;;;;;;;;;;;;;;5073285;28;20383;-60
2022/05/14 14:49:30;;;;;;;;;;;;;;;;;;5062528;28;19924;-60
2022/05/14 14:51:58;;;;;;;;;;;;;;;;;;5062817;28;19928;-60
2022/05/14 14:54:25;;;;;;;;;;;;;;;;;;5072349;28;20540;-60
2022/05/14 14:56:52;;;;;;;;;;;;;;;;;;5063158;28;19932;-59
2022/05/14 14:59:19;;;;;;;;;;;;;;;;;;5063981;28;19931;-60
2022/05/14 15:01:46;;;;;;;;;;;;;;;;;;5062035;28;19958;-59
2022/05/14 15:04:13;;;;;;;;;;;;;;;;;;5065561;28;20291;-60
2022/05/14 15:06:40;;;;;;;;;;;;;;;;;;5067787;28;19924;-60
2022/05/14 15:09:07;;;;;;;;;;;;;;;;;;5074320;28;19931;-60
2022/05/14 15:11:34;;;;;;;;;;;;;;;;;;5069976;28;19931;-61
2022/05/14 15:14:01;;;;;;;;;;;;;;;;;;5071060;28;19933;-60
2022/05/14 15:16:29;;;;;;;;;;;;;;;;;;5065329;28;20387;-60
2022/05/14 15:18:56;;;;;;;;;;;;;;;;;;5070472;28;19924;-60
2022/05/14 15:21:23;;;;;;;;;;;;;;;;;;5067322;28;20484;-61
2022/05/14 15:23:52;;;;;;;;;;;;;;;;;;5067681;28;19933;-60
2022/05/14 15:26:22;;;;;;;;;;;;;;;;;;5060458;28;19977;-60
2022/05/14 15:28:54;;;;;;;;;;;;;;;;;;5067298;28;19928;-60
2022/05/14 15:31:21;;;;;;;;;;;;;;;;;;5064795;28;20678;-61
2022/05/14 15:33:48;;;;;;;;;;;32.70;80.60;;;;;;5064614;28;20333;-59
2022/05/14 15:36:14;;;;;;;;;;;32.90;82.60;;;;;;5067104;28;19932;-59
2022/05/14 15:38:41;;;;;;;;;;;32.70;82.50;;;;;;5067336;28;19924;-60
2022/05/14 15:41:08;;;;;;;;;;;32.50;81.70;;;;;;5070138;28;20299;-60
2022/05/14 15:43:36;;;;;;;;;;;32.60;82.50;;;;;;5079110;28;20574;-60
2022/05/14 15:46:07;;;;;;;;;;;32.90;80.90;;;;;;5065825;28;19931;-61
2022/05/14 15:48:53;;;;;;;;;;;32.50;82.10;;;;;;5065247;28;20335;-61
2022/05/14 15:51:21;;;;;;;;;;;31.70;82.60;;;;;;5060986;28;20410;-60
2022/05/14 15:53:48;;;;;;;;;;;32.10;82.90;;;;;;5063440;28;20679;-59
2022/05/14 15:56:17;;;;;;;;;;;32.60;83.40;;;;;;5056839;28;19931;-59
2022/05/14 15:58:43;;;;;;;;;;;33.10;81.00;;;;;;5067891;28;19959;-60
2022/05/14 16:01:12;;;;;;;;;;;33.60;79.90;;;;;;5071478;28;19938;-60
2022/05/14 16:03:39;;;;;;;;;;;34.00;80.30;;;;;;5062550;28;20753;-60
2022/05/14 16:06:07;;;;;;;;;;;33.20;80.70;;;;;;5069626;28;19935;-60
2022/05/14 16:08:34;;;;;;;;;;;32.70;80.70;;;;;;5068991;28;19938;-60
2022/05/14 16:16:31;;;;;;;;;;;30.90;81.40;;;;;;5071690;28;20506;-60
2022/05/14 16:18:58;;;;;;;;;;;29.60;82.80;;;;;;5065813;28;19928;-60
2022/05/14 16:21:25;;;;;;;;;;;28.40;84.80;;;;;;5066557;28;19924;-60
2022/05/14 16:23:53;;;;;;;;;;;27.50;86.70;;;;;;5067810;28;19924;-60
2022/05/14 16:26:25;;;;;;;;;;;27.00;88.30;;;;;;5062688;28;20430;-60
2022/05/14 16:28:52;;;;;;;;;;;26.50;88.80;;;;;;5060803;28;19928;-60
2022/05/14 16:31:20;;;;;;;;;;;26.40;90.30;;;;;;5061794;28;20375;-60
2022/05/14 16:33:47;;;;;;;;;;;26.30;90.10;;;;;;5060685;28;19928;-60
2022/05/14 16:36:14;;;;;;;;;;;26.20;90.40;;;;;;5074721;28;19925;-61
2022/05/14 16:38:42;;;;;;;;;;;26.00;90.50;;;;;;5064663;28;20031;-60
2022/05/14 16:41:16;;;;;;;;;;;25.90;91.00;;;;;;5062888;28;20383;-60
2022/05/14 16:43:43;;;;;;;;;;;25.70;90.80;;;;;;5054578;28;20023;-60
2022/05/14 16:46:10;;;;;;;;;;;25.60;90.30;;;;;;5091023;28;19935;-60
2022/05/14 16:48:38;;;;;;;;;;;25.40;90.20;;;;;;5065686;28;19951;-60
2022/05/14 16:51:08;;;;;;;;;;;25.30;90.40;;;;;;5058647;28;19939;-60
2022/05/14 16:53:38;;;;;;;;;;;25.20;90.80;;;;;;5060691;28;20328;-59
2022/05/14 16:56:12;;;;;;;;;;;24.90;91.00;;;;;;5065195;28;19928;-60
2022/05/14 16:58:39;;;;;;;;;;;24.70;90.70;;;;;;5061060;28;19970;-61
2022/05/14 17:01:06;;;;;;;;;;;24.40;91.20;;;;;;5069112;28;19925;-61
2022/05/14 17:03:34;;;;;;;;;;;24.20;91.30;;;;;;5064723;28;20395;-60
2022/05/14 17:06:00;;;;;;;;;;;24.00;91.90;;;;;;5062792;28;20403;-60
2022/05/14 17:08:27;;;;;;;;;;;23.90;92.00;;;;;;5067458;28;19933;-61
2022/05/14 17:10:53;;;;;;;;;;;23.70;92.20;;;;;;5068951;28;19924;-60
2022/05/14 17:13:20;;;;;;;;;;;23.60;92.10;;;;;;5064135;28;19925;-60
2022/05/14 17:15:50;;;;;;;;;;;23.50;92.30;;;;;;5062198;28;20042;-60
2022/05/14 17:18:17;;;;;;;;;;;23.50;92.30;;;;;;5064043;28;20038;-60
2022/05/14 17:20:46;;;;;;;;;;;23.40;93.00;;;;;;5061148;28;19925;-60
2022/05/14 17:23:13;;;;;;;;;;;23.40;92.70;;;;;;5058807;28;20384;-60
2022/05/14 17:25:40;;;;;;;;;;;23.40;92.60;;;;;;5066945;28;19931;-60
2022/05/14 17:28:07;;;;;;;;;;;23.30;92.50;;;;;;5066079;28;20011;-60
2022/05/14 17:30:36;;;;;;;;;;;23.30;93.10;;;;;;5061290;28;20036;-60
2022/05/14 17:33:04;;;;;;;;;;;23.20;92.90;;;;;;5050754;28;19933;-63
2022/05/14 17:35:51;;;;;;;;;;;23.10;93.50;;;;;;5052764;28;20025;-59
2022/05/14 17:41:16;;;;;;;;;;;21.70;99.90;;;;;;4933321;28;69140;-66
2022/05/14 17:43:43;;;;;;;;;;;19.60;99.90;;;;;;5095373;28;19925;-66
2022/05/14 17:46:09;;;;;;;;;;;18.00;99.90;;;;;;5057131;28;19929;-65
2022/05/14 17:48:36;;;;;;;;;;;17.00;99.90;;;;;;5055124;28;19938;-65
2022/05/14 17:51:03;;;;;;;;;;;16.40;99.90;;;;;;5063087;28;19958;-63
2022/05/14 17:53:30;;;;;;;;;;;16.40;99.90;;;;;;4911505;28;221165;-70
2022/05/14 17:55:56;;;;;;;;;;;16.80;99.90;;;;;;4965307;28;25061;-68
2022/05/14 17:58:23;;;;;;;;;;;17.40;99.90;;;;;;5064829;28;20270;-67
2022/05/14 18:00:50;;;;;;;;;;;17.90;99.90;;;;;;5067052;28;20315;-68
2022/05/14 18:03:16;;;;;;;;;;;17.80;99.90;;;;;;5063884;28;19929;-68
2022/05/14 18:05:44;;;;;;;;;;;17.90;99.90;;;;;;5071135;28;19924;-68
2022/05/14 18:08:11;;;;;;;;;;;17.90;99.90;;;;;;5065823;28;19935;-67
2022/05/14 18:13:23;;;;;;;;;;;18.10;99.90;;;;;;5062188;28;19924;-67
2022/05/14 18:15:50;;;;;;;;;;;18.50;99.90;;;;;;5049891;28;19933;-67
2022/05/14 18:18:16;;;;;;;;;;;18.70;99.90;;;;;;5049931;28;20376;-67
2022/05/14 18:20:44;;;;;;;;;;;18.50;99.90;;;;;;5051064;28;20428;-67
2022/05/14 18:23:11;;;;;;;;;;;18.60;99.90;;;;;;5053115;28;19938;-66
2022/05/14 18:25:49;;;;;;;;;;;17.60;99.90;;;;;;5055083;28;19938;-67
2022/05/14 18:28:16;;;;;;;;;;;17.60;99.90;;;;;;5067784;28;20014;-67
2022/05/14 18:30:44;;;;;;;;;;;17.70;99.90;;;;;;5068116;28;19924;-67
2022/05/14 18:33:14;;;;;;;;;;;17.40;99.90;;;;;;5048269;28;19939;-67
2022/05/14 18:35:45;;;;;;;;;;;17.30;99.90;;;;;;5049384;28;19929;-67
2022/05/14 18:38:12;;;;;;;;;;;17.40;99.90;;;;;;5060527;28;19928;-67
2022/05/14 18:40:40;;;;;;;;;;;17.40;99.90;;;;;;5073015;28;20020;-68
2022/05/14 18:43:09;;;;;;;;;;;17.60;99.90;;;;;;5053195;28;19932;-67
2022/05/14 18:45:37;;;;;;;;;;;17.20;99.90;;;;;;5055545;28;19928;-67
2022/05/14 18:48:04;;;;;;;;;;;17.20;99.90;;;;;;5067642;28;19925;-67
2022/05/14 18:50:31;;;;;;;;;;;17.30;99.90;;;;;;5072694;28;19939;-67
2022/05/14 18:52:57;;;;;;;;;;;17.40;99.90;;;;;;5063690;28;19959;-66
2022/05/14 18:55:24;;;;;;;;;;;17.20;99.90;;;;;;5063155;28;20413;-66
2022/05/14 18:57:52;;;;;;;;;;;17.10;99.90;;;;;;5064964;28;19925;-66
2022/05/14 19:00:19;;;;;;;;;;;17.20;99.90;;;;;;5066093;28;20643;-66
2022/05/14 19:02:54;;;;;;;;;;;17.00;99.90;;;;;;5059777;28;19931;-66
2022/05/14 19:08:07;;;;;;;;;;;17.00;99.90;;;;;;5054108;28;19930;-66
2022/05/14 19:10:33;;;;;;;;;;;16.80;99.90;;;;;;5070997;28;19938;-66
2022/05/14 19:13:03;;;;;;;;;;;16.50;99.90;;;;;;5064584;28;20410;-66
2022/05/14 19:15:31;;;;;;;;;;;16.20;99.90;;;;;;5053731;28;20603;-66
2022/05/14 19:17:58;;;;;;;;;;;16.20;99.90;;;;;;5072778;28;19924;-66